sensor_id;sensor_type;location;lat;lon;timestamp;P1;durP1;ratioP1;P2;durP2;ratioP2
21771;SDS011;11047;47.904;8.110;2023-04-06T00:01:10;5.03;;;2.65;;
21771;SDS011;11047;47.904;8.110;2023-04-06T00:03:37;3.50;;;2.67;;
21771;SDS011;11047;47.904;8.110;2023-04-06T00:06:06;10.43;;;3.50;;
21771;SDS011;11047;47.904;8.110;2023-04-06T00:08:33;4.80;;;3.20;;
21771;SDS011;11047;47.904;8.110;2023-04-06T00:10:59;5.93;;;3.10;;
21771;SDS011;11047;47.904;8.110;2023-04-06T00:13:26;3.83;;;2.65;;
21771;SDS011;11047;47.904;8.110;2023-04-06T00:15:53;5.30;;;2.80;;
21771;SDS011;11047;47.904;8.110;2023-04-06T00:18:20;5.10;;;3.10;;
21771;SDS011;11047;47.904;8.110;2023-04-06T00:20:48;4.53;;;2.78;;
21771;SDS011;11047;47.904;8.110;2023-04-06T00:23:17;4.50;;;2.83;;
21771;SDS011;11047;47.904;8.110;2023-04-06T00:25:44;3.78;;;2.95;;
21771;SDS011;11047;47.904;8.110;2023-04-06T00:28:11;4.32;;;2.83;;
21771;SDS011;11047;47.904;8.110;2023-04-06T00:30:38;4.00;;;2.78;;
21771;SDS011;11047;47.904;8.110;2023-04-06T00:33:06;3.85;;;2.78;;
21771;SDS011;11047;47.904;8.110;2023-04-06T00:35:33;4.15;;;2.80;;
21771;SDS011;11047;47.904;8.110;2023-04-06T00:38:00;5.45;;;2.70;;
21771;SDS011;11047;47.904;8.110;2023-04-06T00:40:28;5.55;;;2.75;;
21771;SDS011;11047;47.904;8.110;2023-04-06T00:42:56;5.13;;;3.15;;
21771;SDS011;11047;47.904;8.110;2023-04-06T00:45:23;6.03;;;3.30;;
21771;SDS011;11047;47.904;8.110;2023-04-06T00:47:50;6.57;;;3.30;;
21771;SDS011;11047;47.904;8.110;2023-04-06T00:50:17;3.90;;;2.90;;
21771;SDS011;11047;47.904;8.110;2023-04-06T00:52:44;4.35;;;2.92;;
21771;SDS011;11047;47.904;8.110;2023-04-06T00:55:11;3.65;;;2.70;;
21771;SDS011;11047;47.904;8.110;2023-04-06T00:57:39;4.97;;;2.58;;
21771;SDS011;11047;47.904;8.110;2023-04-06T01:00:06;3.72;;;2.42;;
21771;SDS011;11047;47.904;8.110;2023-04-06T01:02:35;4.75;;;2.90;;
21771;SDS011;11047;47.904;8.110;2023-04-06T01:05:02;3.10;;;2.60;;
21771;SDS011;11047;47.904;8.110;2023-04-06T01:07:29;5.30;;;2.85;;
21771;SDS011;11047;47.904;8.110;2023-04-06T01:09:56;3.83;;;2.67;;
21771;SDS011;11047;47.904;8.110;2023-04-06T01:12:23;4.07;;;2.60;;
21771;SDS011;11047;47.904;8.110;2023-04-06T01:14:52;6.13;;;3.28;;
21771;SDS011;11047;47.904;8.110;2023-04-06T01:17:19;4.05;;;2.70;;
21771;SDS011;11047;47.904;8.110;2023-04-06T01:19:46;5.35;;;2.47;;
21771;SDS011;11047;47.904;8.110;2023-04-06T01:22:16;4.32;;;3.17;;
21771;SDS011;11047;47.904;8.110;2023-04-06T01:24:43;4.97;;;3.28;;
21771;SDS011;11047;47.904;8.110;2023-04-06T01:27:10;3.80;;;3.03;;
21771;SDS011;11047;47.904;8.110;2023-04-06T01:29:37;4.03;;;2.97;;
21771;SDS011;11047;47.904;8.110;2023-04-06T01:32:06;4.15;;;2.95;;
21771;SDS011;11047;47.904;8.110;2023-04-06T01:34:33;4.45;;;3.00;;
21771;SDS011;11047;47.904;8.110;2023-04-06T01:37:00;3.38;;;2.40;;
21771;SDS011;11047;47.904;8.110;2023-04-06T01:39:28;4.93;;;2.67;;
21771;SDS011;11047;47.904;8.110;2023-04-06T01:41:56;5.80;;;2.92;;
21771;SDS011;11047;47.904;8.110;2023-04-06T01:44:23;2.65;;;2.33;;
21771;SDS011;11047;47.904;8.110;2023-04-06T01:46:50;4.53;;;2.72;;
21771;SDS011;11047;47.904;8.110;2023-04-06T01:49:17;3.55;;;2.58;;
21771;SDS011;11047;47.904;8.110;2023-04-06T01:51:43;4.03;;;2.67;;
21771;SDS011;11047;47.904;8.110;2023-04-06T01:54:10;4.78;;;2.88;;
21771;SDS011;11047;47.904;8.110;2023-04-06T01:56:38;3.95;;;2.75;;
21771;SDS011;11047;47.904;8.110;2023-04-06T01:59:06;4.32;;;2.50;;
21771;SDS011;11047;47.904;8.110;2023-04-06T02:01:32;3.65;;;2.58;;
21771;SDS011;11047;47.904;8.110;2023-04-06T02:03:59;3.17;;;2.63;;
21771;SDS011;11047;47.904;8.110;2023-04-06T02:06:26;6.07;;;2.72;;
21771;SDS011;11047;47.904;8.110;2023-04-06T02:08:53;3.38;;;2.60;;
21771;SDS011;11047;47.904;8.110;2023-04-06T02:11:20;3.72;;;2.90;;
21771;SDS011;11047;47.904;8.110;2023-04-06T02:13:48;4.10;;;2.88;;
21771;SDS011;11047;47.904;8.110;2023-04-06T02:16:15;4.22;;;2.67;;
21771;SDS011;11047;47.904;8.110;2023-04-06T02:18:42;3.30;;;2.80;;
21771;SDS011;11047;47.904;8.110;2023-04-06T02:21:09;4.03;;;2.70;;
21771;SDS011;11047;47.904;8.110;2023-04-06T02:23:36;2.97;;;2.45;;
21771;SDS011;11047;47.904;8.110;2023-04-06T02:26:03;4.60;;;2.83;;
21771;SDS011;11047;47.904;8.110;2023-04-06T02:28:30;3.28;;;2.55;;
21771;SDS011;11047;47.904;8.110;2023-04-06T02:30:58;4.68;;;2.97;;
21771;SDS011;11047;47.904;8.110;2023-04-06T02:33:25;4.03;;;3.10;;
21771;SDS011;11047;47.904;8.110;2023-04-06T02:35:52;4.72;;;2.95;;
21771;SDS011;11047;47.904;8.110;2023-04-06T02:38:19;4.35;;;3.08;;
21771;SDS011;11047;47.904;8.110;2023-04-06T02:40:46;4.10;;;2.50;;
21771;SDS011;11047;47.904;8.110;2023-04-06T02:43:13;4.78;;;2.90;;
21771;SDS011;11047;47.904;8.110;2023-04-06T02:45:40;5.85;;;2.97;;
21771;SDS011;11047;47.904;8.110;2023-04-06T02:48:08;4.72;;;2.47;;
21771;SDS011;11047;47.904;8.110;2023-04-06T02:50:35;4.28;;;2.67;;
21771;SDS011;11047;47.904;8.110;2023-04-06T02:53:02;4.03;;;2.70;;
21771;SDS011;11047;47.904;8.110;2023-04-06T02:55:31;4.75;;;2.53;;
21771;SDS011;11047;47.904;8.110;2023-04-06T02:57:58;4.30;;;2.55;;
21771;SDS011;11047;47.904;8.110;2023-04-06T03:00:25;4.25;;;2.55;;
21771;SDS011;11047;47.904;8.110;2023-04-06T03:02:52;3.45;;;2.88;;
21771;SDS011;11047;47.904;8.110;2023-04-06T03:05:20;4.07;;;2.85;;
21771;SDS011;11047;47.904;8.110;2023-04-06T03:07:47;4.30;;;2.70;;
21771;SDS011;11047;47.904;8.110;2023-04-06T03:10:14;6.15;;;3.30;;
21771;SDS011;11047;47.904;8.110;2023-04-06T03:12:41;3.05;;;2.75;;
21771;SDS011;11047;47.904;8.110;2023-04-06T03:15:08;5.70;;;2.67;;
21771;SDS011;11047;47.904;8.110;2023-04-06T03:17:36;4.05;;;3.00;;
21771;SDS011;11047;47.904;8.110;2023-04-06T03:20:03;3.72;;;2.53;;
21771;SDS011;11047;47.904;8.110;2023-04-06T03:22:32;2.95;;;2.45;;
21771;SDS011;11047;47.904;8.110;2023-04-06T03:24:59;3.80;;;2.70;;
21771;SDS011;11047;47.904;8.110;2023-04-06T03:27:26;4.82;;;2.50;;
21771;SDS011;11047;47.904;8.110;2023-04-06T03:29:53;3.40;;;2.78;;
21771;SDS011;11047;47.904;8.110;2023-04-06T03:32:20;4.40;;;2.92;;
21771;SDS011;11047;47.904;8.110;2023-04-06T03:34:47;3.10;;;2.63;;
21771;SDS011;11047;47.904;8.110;2023-04-06T03:37:14;3.42;;;2.70;;
21771;SDS011;11047;47.904;8.110;2023-04-06T03:39:42;4.18;;;2.90;;
21771;SDS011;11047;47.904;8.110;2023-04-06T03:42:09;4.00;;;3.15;;
21771;SDS011;11047;47.904;8.110;2023-04-06T03:44:36;5.63;;;2.83;;
21771;SDS011;11047;47.904;8.110;2023-04-06T03:47:03;4.03;;;2.72;;
21771;SDS011;11047;47.904;8.110;2023-04-06T03:49:30;3.40;;;2.97;;
21771;SDS011;11047;47.904;8.110;2023-04-06T03:51:57;3.88;;;2.83;;
21771;SDS011;11047;47.904;8.110;2023-04-06T03:54:23;4.13;;;2.97;;
21771;SDS011;11047;47.904;8.110;2023-04-06T03:56:52;4.55;;;2.78;;
21771;SDS011;11047;47.904;8.110;2023-04-06T03:59:19;4.45;;;3.03;;
21771;SDS011;11047;47.904;8.110;2023-04-06T04:01:45;4.05;;;2.78;;
21771;SDS011;11047;47.904;8.110;2023-04-06T04:04:12;3.58;;;2.85;;
21771;SDS011;11047;47.904;8.110;2023-04-06T04:06:39;4.82;;;3.22;;
21771;SDS011;11047;47.904;8.110;2023-04-06T04:09:06;3.95;;;3.42;;
21771;SDS011;11047;47.904;8.110;2023-04-06T04:11:33;11.60;;;3.70;;
21771;SDS011;11047;47.904;8.110;2023-04-06T04:14:01;4.00;;;2.67;;
21771;SDS011;11047;47.904;8.110;2023-04-06T04:16:28;4.00;;;2.67;;
21771;SDS011;11047;47.904;8.110;2023-04-06T04:18:55;4.53;;;2.80;;
21771;SDS011;11047;47.904;8.110;2023-04-06T04:21:23;3.88;;;2.90;;
21771;SDS011;11047;47.904;8.110;2023-04-06T04:23:50;3.72;;;2.67;;
21771;SDS011;11047;47.904;8.110;2023-04-06T04:26:17;6.15;;;3.60;;
21771;SDS011;11047;47.904;8.110;2023-04-06T04:28:44;3.83;;;3.20;;
21771;SDS011;11047;47.904;8.110;2023-04-06T04:31:13;6.43;;;2.95;;
21771;SDS011;11047;47.904;8.110;2023-04-06T04:33:42;3.13;;;2.67;;
21771;SDS011;11047;47.904;8.110;2023-04-06T04:36:09;3.53;;;3.15;;
21771;SDS011;11047;47.904;8.110;2023-04-06T04:38:36;4.18;;;2.95;;
21771;SDS011;11047;47.904;8.110;2023-04-06T04:41:03;4.78;;;3.58;;
21771;SDS011;11047;47.904;8.110;2023-04-06T04:43:30;4.57;;;3.50;;
21771;SDS011;11047;47.904;8.110;2023-04-06T04:45:57;5.30;;;3.35;;
21771;SDS011;11047;47.904;8.110;2023-04-06T04:48:25;4.85;;;3.45;;
21771;SDS011;11047;47.904;8.110;2023-04-06T04:50:52;4.28;;;2.95;;
21771;SDS011;11047;47.904;8.110;2023-04-06T04:53:20;3.50;;;2.90;;
21771;SDS011;11047;47.904;8.110;2023-04-06T04:55:47;4.03;;;2.63;;
21771;SDS011;11047;47.904;8.110;2023-04-06T04:58:13;3.90;;;2.60;;
21771;SDS011;11047;47.904;8.110;2023-04-06T05:00:41;4.00;;;2.78;;
21771;SDS011;11047;47.904;8.110;2023-04-06T05:03:08;5.35;;;3.33;;
21771;SDS011;11047;47.904;8.110;2023-04-06T05:05:38;5.22;;;3.10;;
21771;SDS011;11047;47.904;8.110;2023-04-06T05:08:05;4.30;;;3.08;;
21771;SDS011;11047;47.904;8.110;2023-04-06T05:10:32;4.53;;;2.83;;
21771;SDS011;11047;47.904;8.110;2023-04-06T05:13:02;4.10;;;3.00;;
21771;SDS011;11047;47.904;8.110;2023-04-06T05:15:33;6.38;;;2.90;;
21771;SDS011;11047;47.904;8.110;2023-04-06T05:18:03;6.13;;;2.83;;
21771;SDS011;11047;47.904;8.110;2023-04-06T05:20:29;5.80;;;3.10;;
21771;SDS011;11047;47.904;8.110;2023-04-06T05:22:58;7.50;;;3.10;;
21771;SDS011;11047;47.904;8.110;2023-04-06T05:25:25;4.07;;;2.88;;
21771;SDS011;11047;47.904;8.110;2023-04-06T05:27:52;5.28;;;2.90;;
21771;SDS011;11047;47.904;8.110;2023-04-06T05:30:19;3.35;;;3.05;;
21771;SDS011;11047;47.904;8.110;2023-04-06T05:32:46;4.32;;;2.97;;
21771;SDS011;11047;47.904;8.110;2023-04-06T05:35:13;5.18;;;2.83;;
21771;SDS011;11047;47.904;8.110;2023-04-06T05:37:40;7.22;;;2.83;;
21771;SDS011;11047;47.904;8.110;2023-04-06T05:40:09;3.05;;;2.67;;
21771;SDS011;11047;47.904;8.110;2023-04-06T05:42:36;3.50;;;2.60;;
21771;SDS011;11047;47.904;8.110;2023-04-06T05:45:04;3.95;;;2.70;;
21771;SDS011;11047;47.904;8.110;2023-04-06T05:47:31;3.47;;;2.72;;
21771;SDS011;11047;47.904;8.110;2023-04-06T05:49:59;5.53;;;3.50;;
21771;SDS011;11047;47.904;8.110;2023-04-06T05:52:26;4.20;;;3.05;;
21771;SDS011;11047;47.904;8.110;2023-04-06T05:54:53;5.45;;;2.85;;
21771;SDS011;11047;47.904;8.110;2023-04-06T05:57:22;3.00;;;2.67;;
21771;SDS011;11047;47.904;8.110;2023-04-06T05:59:48;3.95;;;2.75;;
21771;SDS011;11047;47.904;8.110;2023-04-06T06:02:15;4.93;;;3.13;;
21771;SDS011;11047;47.904;8.110;2023-04-06T06:04:42;5.03;;;2.80;;
21771;SDS011;11047;47.904;8.110;2023-04-06T06:07:09;3.17;;;2.60;;
21771;SDS011;11047;47.904;8.110;2023-04-06T06:09:36;3.78;;;3.03;;
21771;SDS011;11047;47.904;8.110;2023-04-06T06:12:03;6.13;;;3.63;;
21771;SDS011;11047;47.904;8.110;2023-04-06T06:14:31;3.75;;;3.13;;
21771;SDS011;11047;47.904;8.110;2023-04-06T06:16:58;5.10;;;2.95;;
21771;SDS011;11047;47.904;8.110;2023-04-06T06:19:25;5.00;;;2.85;;
21771;SDS011;11047;47.904;8.110;2023-04-06T06:21:52;4.80;;;3.25;;
21771;SDS011;11047;47.904;8.110;2023-04-06T06:24:19;7.25;;;4.05;;
21771;SDS011;11047;47.904;8.110;2023-04-06T06:26:46;4.70;;;3.22;;
21771;SDS011;11047;47.904;8.110;2023-04-06T06:29:13;5.38;;;3.50;;
21771;SDS011;11047;47.904;8.110;2023-04-06T06:31:42;5.78;;;3.80;;
21771;SDS011;11047;47.904;8.110;2023-04-06T06:34:09;6.00;;;4.07;;
21771;SDS011;11047;47.904;8.110;2023-04-06T06:36:37;5.28;;;3.70;;
21771;SDS011;11047;47.904;8.110;2023-04-06T06:39:05;6.38;;;4.18;;
21771;SDS011;11047;47.904;8.110;2023-04-06T06:41:31;5.47;;;3.42;;
21771;SDS011;11047;47.904;8.110;2023-04-06T06:43:58;5.35;;;3.67;;
21771;SDS011;11047;47.904;8.110;2023-04-06T06:46:26;8.88;;;3.97;;
21771;SDS011;11047;47.904;8.110;2023-04-06T06:48:54;6.03;;;3.38;;
21771;SDS011;11047;47.904;8.110;2023-04-06T06:51:21;4.03;;;3.42;;
21771;SDS011;11047;47.904;8.110;2023-04-06T06:53:48;5.82;;;3.38;;
21771;SDS011;11047;47.904;8.110;2023-04-06T06:56:15;4.68;;;3.50;;
21771;SDS011;11047;47.904;8.110;2023-04-06T06:58:42;4.53;;;3.22;;
21771;SDS011;11047;47.904;8.110;2023-04-06T07:01:08;7.03;;;3.60;;
21771;SDS011;11047;47.904;8.110;2023-04-06T07:03:35;5.85;;;3.35;;
21771;SDS011;11047;47.904;8.110;2023-04-06T07:06:04;7.18;;;3.10;;
21771;SDS011;11047;47.904;8.110;2023-04-06T07:08:31;5.20;;;3.20;;
21771;SDS011;11047;47.904;8.110;2023-04-06T07:10:57;5.10;;;3.13;;
21771;SDS011;11047;47.904;8.110;2023-04-06T07:13:24;4.82;;;3.03;;
21771;SDS011;11047;47.904;8.110;2023-04-06T07:15:52;5.20;;;3.72;;
21771;SDS011;11047;47.904;8.110;2023-04-06T07:18:19;4.75;;;3.20;;
21771;SDS011;11047;47.904;8.110;2023-04-06T07:20:46;4.75;;;2.95;;
21771;SDS011;11047;47.904;8.110;2023-04-06T07:23:14;6.32;;;3.78;;
21771;SDS011;11047;47.904;8.110;2023-04-06T07:25:41;4.97;;;3.47;;
21771;SDS011;11047;47.904;8.110;2023-04-06T07:28:08;4.47;;;2.97;;
21771;SDS011;11047;47.904;8.110;2023-04-06T07:30:36;7.03;;;3.40;;
21771;SDS011;11047;47.904;8.110;2023-04-06T07:33:03;5.63;;;3.33;;
21771;SDS011;11047;47.904;8.110;2023-04-06T07:35:30;7.93;;;3.10;;
21771;SDS011;11047;47.904;8.110;2023-04-06T07:37:57;7.68;;;3.47;;
21771;SDS011;11047;47.904;8.110;2023-04-06T07:40:25;3.88;;;2.90;;
21771;SDS011;11047;47.904;8.110;2023-04-06T07:42:52;5.18;;;2.97;;
21771;SDS011;11047;47.904;8.110;2023-04-06T07:45:19;5.15;;;2.80;;
21771;SDS011;11047;47.904;8.110;2023-04-06T07:47:46;5.07;;;2.88;;
21771;SDS011;11047;47.904;8.110;2023-04-06T07:50:13;5.60;;;3.58;;
21771;SDS011;11047;47.904;8.110;2023-04-06T07:52:40;5.50;;;4.18;;
21771;SDS011;11047;47.904;8.110;2023-04-06T07:55:07;6.07;;;3.45;;
21771;SDS011;11047;47.904;8.110;2023-04-06T07:57:36;4.68;;;3.25;;
21771;SDS011;11047;47.904;8.110;2023-04-06T08:00:03;4.82;;;3.63;;
21771;SDS011;11047;47.904;8.110;2023-04-06T08:02:31;7.55;;;4.10;;
21771;SDS011;11047;47.904;8.110;2023-04-06T08:04:58;6.13;;;4.47;;
21771;SDS011;11047;47.904;8.110;2023-04-06T08:07:25;7.53;;;4.57;;
21771;SDS011;11047;47.904;8.110;2023-04-06T08:09:52;7.82;;;4.45;;
21771;SDS011;11047;47.904;8.110;2023-04-06T08:12:18;5.85;;;3.83;;
21771;SDS011;11047;47.904;8.110;2023-04-06T08:14:47;7.72;;;4.40;;
21771;SDS011;11047;47.904;8.110;2023-04-06T08:17:14;5.35;;;4.10;;
21771;SDS011;11047;47.904;8.110;2023-04-06T08:19:42;6.75;;;4.28;;
21771;SDS011;11047;47.904;8.110;2023-04-06T08:22:09;6.03;;;4.25;;
21771;SDS011;11047;47.904;8.110;2023-04-06T08:24:36;5.90;;;4.57;;
21771;SDS011;11047;47.904;8.110;2023-04-06T08:27:02;7.63;;;4.28;;
21771;SDS011;11047;47.904;8.110;2023-04-06T08:29:29;6.93;;;4.45;;
21771;SDS011;11047;47.904;8.110;2023-04-06T08:31:57;8.13;;;3.97;;
21771;SDS011;11047;47.904;8.110;2023-04-06T08:34:24;5.60;;;4.25;;
21771;SDS011;11047;47.904;8.110;2023-04-06T08:36:51;6.03;;;4.70;;
21771;SDS011;11047;47.904;8.110;2023-04-06T08:39:18;8.27;;;4.32;;
21771;SDS011;11047;47.904;8.110;2023-04-06T08:41:50;6.95;;;3.97;;
21771;SDS011;11047;47.904;8.110;2023-04-06T08:44:18;6.47;;;4.57;;
21771;SDS011;11047;47.904;8.110;2023-04-06T08:46:45;6.00;;;4.63;;
21771;SDS011;11047;47.904;8.110;2023-04-06T08:49:13;5.05;;;4.35;;
21771;SDS011;11047;47.904;8.110;2023-04-06T08:51:42;5.97;;;3.58;;
21771;SDS011;11047;47.904;8.110;2023-04-06T08:54:09;7.78;;;4.40;;
21771;SDS011;11047;47.904;8.110;2023-04-06T08:56:37;7.28;;;4.28;;
21771;SDS011;11047;47.904;8.110;2023-04-06T08:59:05;5.45;;;4.20;;
21771;SDS011;11047;47.904;8.110;2023-04-06T09:01:34;6.50;;;3.92;;
21771;SDS011;11047;47.904;8.110;2023-04-06T09:04:06;8.13;;;4.75;;
21771;SDS011;11047;47.904;8.110;2023-04-06T09:06:37;8.13;;;4.22;;
21771;SDS011;11047;47.904;8.110;2023-04-06T09:09:05;5.40;;;3.90;;
21771;SDS011;11047;47.904;8.110;2023-04-06T09:11:45;6.53;;;4.65;;
21771;SDS011;11047;47.904;8.110;2023-04-06T09:14:13;7.57;;;4.28;;
21771;SDS011;11047;47.904;8.110;2023-04-06T09:16:40;5.93;;;4.72;;
21771;SDS011;11047;47.904;8.110;2023-04-06T09:19:08;7.50;;;4.65;;
21771;SDS011;11047;47.904;8.110;2023-04-06T09:21:37;7.90;;;4.38;;
21771;SDS011;11047;47.904;8.110;2023-04-06T09:24:06;4.93;;;4.05;;
21771;SDS011;11047;47.904;8.110;2023-04-06T09:26:43;6.60;;;5.00;;
21771;SDS011;11047;47.904;8.110;2023-04-06T09:29:21;8.48;;;4.78;;
21771;SDS011;11047;47.904;8.110;2023-04-06T09:31:48;7.47;;;4.43;;
21771;SDS011;11047;47.904;8.110;2023-04-06T09:34:20;6.70;;;4.38;;
21771;SDS011;11047;47.904;8.110;2023-04-06T09:36:48;5.90;;;4.38;;
21771;SDS011;11047;47.904;8.110;2023-04-06T09:39:19;8.88;;;4.40;;
21771;SDS011;11047;47.904;8.110;2023-04-06T09:41:49;5.45;;;4.20;;
21771;SDS011;11047;47.904;8.110;2023-04-06T09:44:17;9.68;;;4.85;;
21771;SDS011;11047;47.904;8.110;2023-04-06T09:46:45;6.90;;;4.32;;
21771;SDS011;11047;47.904;8.110;2023-04-06T09:49:12;6.82;;;4.55;;
21771;SDS011;11047;47.904;8.110;2023-04-06T09:51:40;9.18;;;4.95;;
21771;SDS011;11047;47.904;8.110;2023-04-06T09:54:15;5.75;;;4.63;;
21771;SDS011;11047;47.904;8.110;2023-04-06T09:56:45;5.88;;;4.68;;
21771;SDS011;11047;47.904;8.110;2023-04-06T09:59:14;6.93;;;4.53;;
21771;SDS011;11047;47.904;8.110;2023-04-06T10:01:48;9.05;;;5.35;;
21771;SDS011;11047;47.904;8.110;2023-04-06T10:04:19;7.50;;;4.28;;
21771;SDS011;11047;47.904;8.110;2023-04-06T10:06:53;8.18;;;5.18;;
21771;SDS011;11047;47.904;8.110;2023-04-06T10:09:23;7.07;;;4.68;;
21771;SDS011;11047;47.904;8.110;2023-04-06T10:11:54;5.63;;;4.55;;
21771;SDS011;11047;47.904;8.110;2023-04-06T10:14:21;7.18;;;4.65;;
21771;SDS011;11047;47.904;8.110;2023-04-06T10:16:49;7.30;;;4.65;;
21771;SDS011;11047;47.904;8.110;2023-04-06T10:19:22;6.97;;;4.65;;
21771;SDS011;11047;47.904;8.110;2023-04-06T10:21:54;8.73;;;4.68;;
21771;SDS011;11047;47.904;8.110;2023-04-06T10:24:25;6.60;;;4.80;;
21771;SDS011;11047;47.904;8.110;2023-04-06T10:27:01;7.78;;;4.57;;
21771;SDS011;11047;47.904;8.110;2023-04-06T10:29:40;5.63;;;4.38;;
21771;SDS011;11047;47.904;8.110;2023-04-06T10:32:10;6.25;;;4.28;;
21771;SDS011;11047;47.904;8.110;2023-04-06T10:34:37;5.35;;;4.32;;
21771;SDS011;11047;47.904;8.110;2023-04-06T10:37:10;11.85;;;4.82;;
21771;SDS011;11047;47.904;8.110;2023-04-06T10:39:49;7.28;;;4.90;;
21771;SDS011;11047;47.904;8.110;2023-04-06T10:42:23;7.63;;;4.70;;
21771;SDS011;11047;47.904;8.110;2023-04-06T10:44:50;8.38;;;5.10;;
21771;SDS011;11047;47.904;8.110;2023-04-06T10:47:17;5.47;;;4.03;;
21771;SDS011;11047;47.904;8.110;2023-04-06T10:49:45;9.25;;;4.90;;
21771;SDS011;11047;47.904;8.110;2023-04-06T10:52:11;10.20;;;4.70;;
21771;SDS011;11047;47.904;8.110;2023-04-06T10:54:40;6.65;;;4.95;;
21771;SDS011;11047;47.904;8.110;2023-04-06T10:57:10;7.50;;;4.47;;
21771;SDS011;11047;47.904;8.110;2023-04-06T10:59:41;7.85;;;4.43;;
21771;SDS011;11047;47.904;8.110;2023-04-06T11:02:18;5.93;;;4.20;;
21771;SDS011;11047;47.904;8.110;2023-04-06T11:04:53;7.35;;;4.47;;
21771;SDS011;11047;47.904;8.110;2023-04-06T11:07:22;4.97;;;4.00;;
21771;SDS011;11047;47.904;8.110;2023-04-06T11:09:50;7.85;;;4.72;;
21771;SDS011;11047;47.904;8.110;2023-04-06T11:12:22;6.43;;;4.25;;
21771;SDS011;11047;47.904;8.110;2023-04-06T11:14:54;6.72;;;5.13;;
21771;SDS011;11047;47.904;8.110;2023-04-06T11:17:26;9.05;;;6.13;;
21771;SDS011;11047;47.904;8.110;2023-04-06T11:19:53;8.45;;;5.03;;
21771;SDS011;11047;47.904;8.110;2023-04-06T11:22:20;8.35;;;4.45;;
21771;SDS011;11047;47.904;8.110;2023-04-06T11:24:47;7.50;;;4.55;;
21771;SDS011;11047;47.904;8.110;2023-04-06T11:27:14;7.97;;;4.43;;
21771;SDS011;11047;47.904;8.110;2023-04-06T11:29:43;8.52;;;4.47;;
21771;SDS011;11047;47.904;8.110;2023-04-06T11:32:19;6.30;;;4.78;;
21771;SDS011;11047;47.904;8.110;2023-04-06T11:34:47;6.30;;;4.13;;
21771;SDS011;11047;47.904;8.110;2023-04-06T11:37:14;5.80;;;4.38;;
21771;SDS011;11047;47.904;8.110;2023-04-06T11:39:42;8.73;;;4.38;;
21771;SDS011;11047;47.904;8.110;2023-04-06T11:42:20;8.68;;;4.68;;
21771;SDS011;11047;47.904;8.110;2023-04-06T11:47:17;6.80;;;4.38;;
21771;SDS011;11047;47.904;8.110;2023-04-06T11:49:47;4.38;;;3.80;;
21771;SDS011;11047;47.904;8.110;2023-04-06T11:52:14;5.78;;;4.85;;
21771;SDS011;11047;47.904;8.110;2023-04-06T11:54:42;5.75;;;4.45;;
21771;SDS011;11047;47.904;8.110;2023-04-06T11:57:09;6.28;;;4.50;;
21771;SDS011;11047;47.904;8.110;2023-04-06T11:59:36;7.65;;;4.95;;
21771;SDS011;11047;47.904;8.110;2023-04-06T12:02:04;7.90;;;4.50;;
21771;SDS011;11047;47.904;8.110;2023-04-06T12:04:32;6.60;;;4.40;;
21771;SDS011;11047;47.904;8.110;2023-04-06T12:06:59;6.35;;;4.35;;
21771;SDS011;11047;47.904;8.110;2023-04-06T12:09:26;5.65;;;3.88;;
21771;SDS011;11047;47.904;8.110;2023-04-06T12:11:53;5.93;;;4.40;;
21771;SDS011;11047;47.904;8.110;2023-04-06T12:14:21;5.47;;;3.75;;
21771;SDS011;11047;47.904;8.110;2023-04-06T12:16:48;5.93;;;3.70;;
21771;SDS011;11047;47.904;8.110;2023-04-06T12:19:16;5.35;;;3.35;;
21771;SDS011;11047;47.904;8.110;2023-04-06T12:21:43;4.47;;;2.90;;
21771;SDS011;11047;47.904;8.110;2023-04-06T12:24:10;4.90;;;3.83;;
21771;SDS011;11047;47.904;8.110;2023-04-06T12:26:37;6.53;;;3.47;;
21771;SDS011;11047;47.904;8.110;2023-04-06T12:29:03;7.25;;;3.25;;
21771;SDS011;11047;47.904;8.110;2023-04-06T12:31:32;4.10;;;3.08;;
21771;SDS011;11047;47.904;8.110;2023-04-06T12:34:01;4.57;;;3.38;;
21771;SDS011;11047;47.904;8.110;2023-04-06T12:36:31;6.28;;;3.50;;
21771;SDS011;11047;47.904;8.110;2023-04-06T12:38:58;4.93;;;3.15;;
21771;SDS011;11047;47.904;8.110;2023-04-06T12:41:25;3.30;;;2.85;;
21771;SDS011;11047;47.904;8.110;2023-04-06T12:43:52;7.38;;;3.30;;
21771;SDS011;11047;47.904;8.110;2023-04-06T12:46:19;4.68;;;3.08;;
21771;SDS011;11047;47.904;8.110;2023-04-06T12:48:46;5.05;;;2.75;;
21771;SDS011;11047;47.904;8.110;2023-04-06T12:51:13;6.03;;;3.13;;
21771;SDS011;11047;47.904;8.110;2023-04-06T12:53:41;3.17;;;2.50;;
21771;SDS011;11047;47.904;8.110;2023-04-06T12:56:12;3.58;;;2.65;;
21771;SDS011;11047;47.904;8.110;2023-04-06T12:58:40;4.45;;;2.53;;
21771;SDS011;11047;47.904;8.110;2023-04-06T13:01:07;5.78;;;2.75;;
21771;SDS011;11047;47.904;8.110;2023-04-06T13:03:34;3.72;;;3.00;;
21771;SDS011;11047;47.904;8.110;2023-04-06T13:06:01;5.18;;;2.72;;
21771;SDS011;11047;47.904;8.110;2023-04-06T13:08:28;4.18;;;2.83;;
21771;SDS011;11047;47.904;8.110;2023-04-06T13:10:57;4.65;;;2.75;;
21771;SDS011;11047;47.904;8.110;2023-04-06T13:13:24;3.63;;;2.83;;
21771;SDS011;11047;47.904;8.110;2023-04-06T13:15:52;5.22;;;2.42;;
21771;SDS011;11047;47.904;8.110;2023-04-06T13:18:20;4.10;;;2.72;;
21771;SDS011;11047;47.904;8.110;2023-04-06T13:20:47;4.32;;;3.00;;
21771;SDS011;11047;47.904;8.110;2023-04-06T13:23:15;4.18;;;2.03;;
21771;SDS011;11047;47.904;8.110;2023-04-06T13:25:42;3.80;;;2.58;;
21771;SDS011;11047;47.904;8.110;2023-04-06T13:28:10;3.75;;;2.55;;
21771;SDS011;11047;47.904;8.110;2023-04-06T13:30:37;2.70;;;2.47;;
21771;SDS011;11047;47.904;8.110;2023-04-06T13:33:04;3.50;;;2.38;;
21771;SDS011;11047;47.904;8.110;2023-04-06T13:35:31;4.28;;;2.90;;
21771;SDS011;11047;47.904;8.110;2023-04-06T13:37:58;5.63;;;2.63;;
21771;SDS011;11047;47.904;8.110;2023-04-06T13:40:25;4.00;;;2.47;;
21771;SDS011;11047;47.904;8.110;2023-04-06T13:42:52;3.50;;;2.38;;
21771;SDS011;11047;47.904;8.110;2023-04-06T13:45:20;3.20;;;2.40;;
21771;SDS011;11047;47.904;8.110;2023-04-06T13:47:47;4.78;;;2.67;;
21771;SDS011;11047;47.904;8.110;2023-04-06T13:50:13;3.88;;;2.40;;
21771;SDS011;11047;47.904;8.110;2023-04-06T13:52:40;3.95;;;2.47;;
21771;SDS011;11047;47.904;8.110;2023-04-06T13:55:08;4.75;;;2.53;;
21771;SDS011;11047;47.904;8.110;2023-04-06T13:57:35;5.43;;;2.95;;
21771;SDS011;11047;47.904;8.110;2023-04-06T14:00:03;4.18;;;2.85;;
21771;SDS011;11047;47.904;8.110;2023-04-06T14:02:32;5.20;;;3.22;;
21771;SDS011;11047;47.904;8.110;2023-04-06T14:04:59;5.10;;;2.83;;
21771;SDS011;11047;47.904;8.110;2023-04-06T14:07:26;7.70;;;2.90;;
21771;SDS011;11047;47.904;8.110;2023-04-06T14:09:53;6.18;;;2.70;;
21771;SDS011;11047;47.904;8.110;2023-04-06T14:12:20;4.32;;;2.80;;
21771;SDS011;11047;47.904;8.110;2023-04-06T14:14:47;4.43;;;3.03;;
21771;SDS011;11047;47.904;8.110;2023-04-06T14:17:13;3.95;;;3.22;;
21771;SDS011;11047;47.904;8.110;2023-04-06T14:19:42;3.72;;;2.83;;
21771;SDS011;11047;47.904;8.110;2023-04-06T14:22:09;6.07;;;2.92;;
21771;SDS011;11047;47.904;8.110;2023-04-06T14:24:36;3.65;;;2.70;;
21771;SDS011;11047;47.904;8.110;2023-04-06T14:27:03;3.60;;;2.40;;
21771;SDS011;11047;47.904;8.110;2023-04-06T14:29:30;3.58;;;2.83;;
21771;SDS011;11047;47.904;8.110;2023-04-06T14:31:57;3.58;;;2.63;;
21771;SDS011;11047;47.904;8.110;2023-04-06T14:34:25;4.20;;;3.13;;
21771;SDS011;11047;47.904;8.110;2023-04-06T14:36:53;4.75;;;2.90;;
21771;SDS011;11047;47.904;8.110;2023-04-06T14:39:20;6.45;;;2.97;;
21771;SDS011;11047;47.904;8.110;2023-04-06T14:41:47;4.47;;;2.80;;
21771;SDS011;11047;47.904;8.110;2023-04-06T14:44:14;4.30;;;2.65;;
21771;SDS011;11047;47.904;8.110;2023-04-06T14:46:41;6.93;;;3.75;;
21771;SDS011;11047;47.904;8.110;2023-04-06T14:49:08;7.30;;;4.05;;
21771;SDS011;11047;47.904;8.110;2023-04-06T14:51:35;5.55;;;3.60;;
21771;SDS011;11047;47.904;8.110;2023-04-06T14:54:03;4.82;;;3.05;;